sensor_id;sensor_type;location;lat;lon;timestamp;P1;durP1;ratioP1;P2;durP2;ratioP2
3311;SDS011;1668;49.648;8.570;2024-02-26T00:02:00;2.17;;;1.53;;
3311;SDS011;1668;49.648;8.570;2024-02-26T00:04:27;6.13;;;1.17;;
3311;SDS011;1668;49.648;8.570;2024-02-26T00:06:54;1.53;;;1.20;;
3311;SDS011;1668;49.648;8.570;2024-02-26T00:09:21;1.47;;;1.20;;
3311;SDS011;1668;49.648;8.570;2024-02-26T00:11:47;1.23;;;1.00;;
3311;SDS011;1668;49.648;8.570;2024-02-26T00:14:14;1.47;;;1.30;;
3311;SDS011;1668;49.648;8.570;2024-02-26T00:16:41;1.33;;;1.20;;
3311;SDS011;1668;49.648;8.570;2024-02-26T00:19:11;1.13;;;1.03;;
3311;SDS011;1668;49.648;8.570;2024-02-26T00:21:39;1.37;;;1.20;;
3311;SDS011;1668;49.648;8.570;2024-02-26T00:24:07;1.10;;;1.00;;
3311;SDS011;1668;49.648;8.570;2024-02-26T00:26:34;1.70;;;1.10;;
3311;SDS011;1668;49.648;8.570;2024-02-26T00:29:01;3.43;;;1.10;;
3311;SDS011;1668;49.648;8.570;2024-02-26T00:31:27;2.23;;;1.10;;
3311;SDS011;1668;49.648;8.570;2024-02-26T00:33:54;1.53;;;1.07;;
3311;SDS011;1668;49.648;8.570;2024-02-26T00:36:23;1.37;;;1.07;;
3311;SDS011;1668;49.648;8.570;2024-02-26T00:38:49;1.67;;;1.20;;
3311;SDS011;1668;49.648;8.570;2024-02-26T00:41:16;1.50;;;1.10;;
3311;SDS011;1668;49.648;8.570;2024-02-26T00:43:43;1.60;;;1.10;;
3311;SDS011;1668;49.648;8.570;2024-02-26T00:46:10;2.40;;;1.47;;
3311;SDS011;1668;49.648;8.570;2024-02-26T00:48:37;1.80;;;1.20;;
3311;SDS011;1668;49.648;8.570;2024-02-26T00:51:04;2.90;;;1.10;;
3311;SDS011;1668;49.648;8.570;2024-02-26T00:53:33;4.40;;;1.20;;
3311;SDS011;1668;49.648;8.570;2024-02-26T00:56:00;1.47;;;1.10;;
3311;SDS011;1668;49.648;8.570;2024-02-26T00:58:27;3.00;;;1.20;;
3311;SDS011;1668;49.648;8.570;2024-02-26T01:00:54;2.80;;;1.33;;
3311;SDS011;1668;49.648;8.570;2024-02-26T01:03:21;3.83;;;1.20;;
3311;SDS011;1668;49.648;8.570;2024-02-26T01:05:47;2.50;;;1.40;;
3311;SDS011;1668;49.648;8.570;2024-02-26T01:08:14;2.37;;;1.50;;
3311;SDS011;1668;49.648;8.570;2024-02-26T01:10:43;1.40;;;1.00;;
3311;SDS011;1668;49.648;8.570;2024-02-26T01:13:09;2.30;;;1.13;;
3311;SDS011;1668;49.648;8.570;2024-02-26T01:15:36;2.47;;;1.30;;
3311;SDS011;1668;49.648;8.570;2024-02-26T01:18:03;2.73;;;1.37;;
3311;SDS011;1668;49.648;8.570;2024-02-26T01:20:30;1.63;;;1.20;;
3311;SDS011;1668;49.648;8.570;2024-02-26T01:22:57;1.87;;;1.20;;
3311;SDS011;1668;49.648;8.570;2024-02-26T01:25:24;1.83;;;1.20;;
3311;SDS011;1668;49.648;8.570;2024-02-26T01:27:52;2.93;;;1.70;;
3311;SDS011;1668;49.648;8.570;2024-02-26T01:30:19;2.13;;;1.30;;
3311;SDS011;1668;49.648;8.570;2024-02-26T01:32:45;2.90;;;1.10;;
3311;SDS011;1668;49.648;8.570;2024-02-26T01:35:12;1.10;;;1.00;;
3311;SDS011;1668;49.648;8.570;2024-02-26T01:37:39;3.10;;;1.20;;
3311;SDS011;1668;49.648;8.570;2024-02-26T01:40:07;1.77;;;1.40;;
3311;SDS011;1668;49.648;8.570;2024-02-26T01:42:36;1.60;;;1.23;;
3311;SDS011;1668;49.648;8.570;2024-02-26T01:45:07;2.10;;;1.27;;
3311;SDS011;1668;49.648;8.570;2024-02-26T01:47:40;2.90;;;1.40;;
3311;SDS011;1668;49.648;8.570;2024-02-26T01:50:07;2.80;;;1.53;;
3311;SDS011;1668;49.648;8.570;2024-02-26T01:52:34;5.20;;;1.37;;
3311;SDS011;1668;49.648;8.570;2024-02-26T01:55:02;1.50;;;1.20;;
3311;SDS011;1668;49.648;8.570;2024-02-26T01:57:29;2.13;;;1.20;;
3311;SDS011;1668;49.648;8.570;2024-02-26T01:59:56;2.27;;;1.60;;
3311;SDS011;1668;49.648;8.570;2024-02-26T02:02:24;1.27;;;1.03;;
3311;SDS011;1668;49.648;8.570;2024-02-26T02:04:51;1.53;;;1.13;;
3311;SDS011;1668;49.648;8.570;2024-02-26T02:07:18;2.40;;;1.20;;
3311;SDS011;1668;49.648;8.570;2024-02-26T02:09:46;1.57;;;1.20;;
3311;SDS011;1668;49.648;8.570;2024-02-26T02:12:13;1.43;;;1.10;;
3311;SDS011;1668;49.648;8.570;2024-02-26T02:14:40;2.23;;;1.10;;
3311;SDS011;1668;49.648;8.570;2024-02-26T02:17:07;2.33;;;1.30;;
3311;SDS011;1668;49.648;8.570;2024-02-26T02:19:35;2.90;;;1.50;;
3311;SDS011;1668;49.648;8.570;2024-02-26T02:22:03;1.67;;;1.43;;
3311;SDS011;1668;49.648;8.570;2024-02-26T02:24:30;1.97;;;1.67;;
3311;SDS011;1668;49.648;8.570;2024-02-26T02:26:57;1.40;;;1.10;;
3311;SDS011;1668;49.648;8.570;2024-02-26T02:29:24;2.17;;;1.57;;
3311;SDS011;1668;49.648;8.570;2024-02-26T02:31:52;2.10;;;1.73;;
3311;SDS011;1668;49.648;8.570;2024-02-26T02:34:20;4.03;;;1.93;;
3311;SDS011;1668;49.648;8.570;2024-02-26T02:36:48;2.40;;;1.70;;
3311;SDS011;1668;49.648;8.570;2024-02-26T02:39:16;3.20;;;1.90;;
3311;SDS011;1668;49.648;8.570;2024-02-26T02:41:43;2.57;;;1.70;;
3311;SDS011;1668;49.648;8.570;2024-02-26T02:44:10;3.00;;;1.80;;
3311;SDS011;1668;49.648;8.570;2024-02-26T02:46:37;3.13;;;1.60;;
3311;SDS011;1668;49.648;8.570;2024-02-26T02:49:07;3.27;;;1.60;;
3311;SDS011;1668;49.648;8.570;2024-02-26T02:51:34;2.10;;;1.80;;
3311;SDS011;1668;49.648;8.570;2024-02-26T02:54:01;4.10;;;2.60;;
3311;SDS011;1668;49.648;8.570;2024-02-26T02:56:29;3.53;;;1.90;;
3311;SDS011;1668;49.648;8.570;2024-02-26T02:58:56;4.43;;;2.03;;
3311;SDS011;1668;49.648;8.570;2024-02-26T03:01:23;1.70;;;1.30;;
3311;SDS011;1668;49.648;8.570;2024-02-26T03:03:50;3.60;;;1.80;;
3311;SDS011;1668;49.648;8.570;2024-02-26T03:06:17;1.80;;;1.43;;
3311;SDS011;1668;49.648;8.570;2024-02-26T03:08:44;2.00;;;1.63;;
3311;SDS011;1668;49.648;8.570;2024-02-26T03:11:12;4.80;;;1.97;;
3311;SDS011;1668;49.648;8.570;2024-02-26T03:13:41;2.23;;;1.60;;
3311;SDS011;1668;49.648;8.570;2024-02-26T03:16:08;2.30;;;1.63;;
3311;SDS011;1668;49.648;8.570;2024-02-26T03:18:35;3.90;;;2.00;;
3311;SDS011;1668;49.648;8.570;2024-02-26T03:21:04;3.07;;;2.13;;
3311;SDS011;1668;49.648;8.570;2024-02-26T03:23:31;2.30;;;1.53;;
3311;SDS011;1668;49.648;8.570;2024-02-26T03:26:01;2.27;;;1.63;;
3311;SDS011;1668;49.648;8.570;2024-02-26T03:28:28;2.10;;;1.80;;
3311;SDS011;1668;49.648;8.570;2024-02-26T03:30:57;1.93;;;1.43;;
3311;SDS011;1668;49.648;8.570;2024-02-26T03:33:24;2.30;;;1.70;;
3311;SDS011;1668;49.648;8.570;2024-02-26T03:35:50;2.50;;;1.77;;
3311;SDS011;1668;49.648;8.570;2024-02-26T03:38:17;3.97;;;1.93;;
3311;SDS011;1668;49.648;8.570;2024-02-26T03:40:44;2.13;;;1.60;;
3311;SDS011;1668;49.648;8.570;2024-02-26T03:43:11;2.37;;;1.90;;
3311;SDS011;1668;49.648;8.570;2024-02-26T03:45:38;2.00;;;1.60;;
3311;SDS011;1668;49.648;8.570;2024-02-26T03:48:06;2.47;;;1.73;;
3311;SDS011;1668;49.648;8.570;2024-02-26T03:50:33;1.87;;;1.47;;
3311;SDS011;1668;49.648;8.570;2024-02-26T03:53:00;2.27;;;1.40;;
3311;SDS011;1668;49.648;8.570;2024-02-26T03:55:27;2.70;;;1.60;;
3311;SDS011;1668;49.648;8.570;2024-02-26T03:57:54;2.90;;;1.67;;
3311;SDS011;1668;49.648;8.570;2024-02-26T04:00:20;2.63;;;1.70;;
3311;SDS011;1668;49.648;8.570;2024-02-26T04:02:47;3.20;;;2.00;;
3311;SDS011;1668;49.648;8.570;2024-02-26T04:05:16;5.23;;;2.13;;
3311;SDS011;1668;49.648;8.570;2024-02-26T04:07:42;2.93;;;1.80;;
3311;SDS011;1668;49.648;8.570;2024-02-26T04:10:09;5.10;;;2.60;;
3311;SDS011;1668;49.648;8.570;2024-02-26T04:12:38;3.57;;;1.97;;
3311;SDS011;1668;49.648;8.570;2024-02-26T04:15:06;3.90;;;2.23;;
3311;SDS011;1668;49.648;8.570;2024-02-26T04:17:33;3.53;;;1.93;;
3311;SDS011;1668;49.648;8.570;2024-02-26T04:20:00;2.03;;;1.83;;
3311;SDS011;1668;49.648;8.570;2024-02-26T04:22:28;1.63;;;1.53;;
3311;SDS011;1668;49.648;8.570;2024-02-26T04:24:55;3.73;;;1.87;;
3311;SDS011;1668;49.648;8.570;2024-02-26T04:27:22;4.07;;;1.90;;
3311;SDS011;1668;49.648;8.570;2024-02-26T04:29:48;3.83;;;2.30;;
3311;SDS011;1668;49.648;8.570;2024-02-26T04:32:15;2.40;;;2.13;;
3311;SDS011;1668;49.648;8.570;2024-02-26T04:34:42;2.97;;;2.17;;
3311;SDS011;1668;49.648;8.570;2024-02-26T04:37:09;2.60;;;1.83;;
3311;SDS011;1668;49.648;8.570;2024-02-26T04:39:37;3.43;;;1.90;;
3311;SDS011;1668;49.648;8.570;2024-02-26T04:42:04;4.87;;;2.10;;
3311;SDS011;1668;49.648;8.570;2024-02-26T04:44:31;3.53;;;2.13;;
3311;SDS011;1668;49.648;8.570;2024-02-26T04:46:57;3.20;;;1.97;;
3311;SDS011;1668;49.648;8.570;2024-02-26T04:49:26;2.57;;;2.03;;
3311;SDS011;1668;49.648;8.570;2024-02-26T04:51:53;2.47;;;1.90;;
3311;SDS011;1668;49.648;8.570;2024-02-26T04:54:20;3.50;;;2.17;;
3311;SDS011;1668;49.648;8.570;2024-02-26T04:56:48;2.73;;;1.87;;
3311;SDS011;1668;49.648;8.570;2024-02-26T04:59:15;3.10;;;1.90;;
3311;SDS011;1668;49.648;8.570;2024-02-26T05:01:42;3.00;;;1.60;;
3311;SDS011;1668;49.648;8.570;2024-02-26T05:04:09;3.77;;;1.53;;
3311;SDS011;1668;49.648;8.570;2024-02-26T05:06:36;2.80;;;1.60;;
3311;SDS011;1668;49.648;8.570;2024-02-26T05:09:03;3.03;;;1.57;;
3311;SDS011;1668;49.648;8.570;2024-02-26T05:11:30;3.97;;;1.40;;
3311;SDS011;1668;49.648;8.570;2024-02-26T05:13:58;4.27;;;1.30;;
3311;SDS011;1668;49.648;8.570;2024-02-26T05:16:25;3.53;;;1.30;;
3311;SDS011;1668;49.648;8.570;2024-02-26T05:18:55;3.00;;;1.33;;
3311;SDS011;1668;49.648;8.570;2024-02-26T05:21:22;3.67;;;1.40;;
3311;SDS011;1668;49.648;8.570;2024-02-26T05:23:48;2.17;;;1.40;;
3311;SDS011;1668;49.648;8.570;2024-02-26T05:26:19;2.13;;;1.50;;
3311;SDS011;1668;49.648;8.570;2024-02-26T05:28:46;1.50;;;1.20;;
3311;SDS011;1668;49.648;8.570;2024-02-26T05:31:14;6.30;;;1.80;;
3311;SDS011;1668;49.648;8.570;2024-02-26T05:33:41;3.70;;;1.53;;
3311;SDS011;1668;49.648;8.570;2024-02-26T05:36:08;2.07;;;1.23;;
3311;SDS011;1668;49.648;8.570;2024-02-26T05:38:35;1.93;;;1.40;;
3311;SDS011;1668;49.648;8.570;2024-02-26T05:41:02;1.90;;;1.20;;
3311;SDS011;1668;49.648;8.570;2024-02-26T05:43:29;1.30;;;0.90;;
3311;SDS011;1668;49.648;8.570;2024-02-26T05:45:56;1.53;;;0.70;;
3311;SDS011;1668;49.648;8.570;2024-02-26T05:48:24;1.47;;;0.80;;
3311;SDS011;1668;49.648;8.570;2024-02-26T05:50:51;1.50;;;1.00;;
3311;SDS011;1668;49.648;8.570;2024-02-26T05:53:18;1.50;;;1.20;;
3311;SDS011;1668;49.648;8.570;2024-02-26T05:55:45;1.63;;;0.80;;
3311;SDS011;1668;49.648;8.570;2024-02-26T05:58:11;1.20;;;0.90;;
3311;SDS011;1668;49.648;8.570;2024-02-26T06:00:39;1.60;;;0.80;;
3311;SDS011;1668;49.648;8.570;2024-02-26T06:03:06;2.23;;;0.90;;
3311;SDS011;1668;49.648;8.570;2024-02-26T06:05:34;1.80;;;1.10;;
3311;SDS011;1668;49.648;8.570;2024-02-26T06:08:00;0.80;;;0.80;;
3311;SDS011;1668;49.648;8.570;2024-02-26T06:10:27;0.93;;;0.80;;
3311;SDS011;1668;49.648;8.570;2024-02-26T06:12:54;1.30;;;0.83;;
3311;SDS011;1668;49.648;8.570;2024-02-26T06:15:21;0.97;;;0.80;;
3311;SDS011;1668;49.648;8.570;2024-02-26T06:17:48;1.00;;;0.70;;
3311;SDS011;1668;49.648;8.570;2024-02-26T06:20:15;1.00;;;0.80;;
3311;SDS011;1668;49.648;8.570;2024-02-26T06:22:43;1.00;;;0.87;;
3311;SDS011;1668;49.648;8.570;2024-02-26T06:25:10;0.90;;;0.70;;
3311;SDS011;1668;49.648;8.570;2024-02-26T06:27:37;0.83;;;0.60;;
3311;SDS011;1668;49.648;8.570;2024-02-26T06:30:04;0.80;;;0.70;;
3311;SDS011;1668;49.648;8.570;2024-02-26T06:32:33;1.23;;;1.00;;
3311;SDS011;1668;49.648;8.570;2024-02-26T06:35:00;0.90;;;0.67;;
3311;SDS011;1668;49.648;8.570;2024-02-26T06:37:31;1.10;;;0.70;;
3311;SDS011;1668;49.648;8.570;2024-02-26T06:40:00;1.20;;;0.80;;
3311;SDS011;1668;49.648;8.570;2024-02-26T06:42:29;2.43;;;0.87;;
3311;SDS011;1668;49.648;8.570;2024-02-26T06:44:55;1.47;;;1.00;;
3311;SDS011;1668;49.648;8.570;2024-02-26T06:47:23;1.50;;;0.93;;
3311;SDS011;1668;49.648;8.570;2024-02-26T06:49:51;1.83;;;1.00;;
3311;SDS011;1668;49.648;8.570;2024-02-26T06:52:17;1.50;;;0.77;;
3311;SDS011;1668;49.648;8.570;2024-02-26T06:54:44;1.07;;;0.80;;
3311;SDS011;1668;49.648;8.570;2024-02-26T06:57:14;0.93;;;0.80;;
3311;SDS011;1668;49.648;8.570;2024-02-26T06:59:41;1.27;;;0.70;;
3311;SDS011;1668;49.648;8.570;2024-02-26T07:02:11;0.90;;;0.60;;
3311;SDS011;1668;49.648;8.570;2024-02-26T07:04:37;1.20;;;0.90;;
3311;SDS011;1668;49.648;8.570;2024-02-26T07:07:04;1.60;;;1.17;;
3311;SDS011;1668;49.648;8.570;2024-02-26T07:09:31;2.30;;;2.03;;
3311;SDS011;1668;49.648;8.570;2024-02-26T07:11:58;5.30;;;4.13;;
3311;SDS011;1668;49.648;8.570;2024-02-26T07:14:26;6.43;;;4.00;;
3311;SDS011;1668;49.648;8.570;2024-02-26T07:16:53;4.40;;;2.90;;
3311;SDS011;1668;49.648;8.570;2024-02-26T07:19:19;1.77;;;1.40;;
3311;SDS011;1668;49.648;8.570;2024-02-26T07:21:46;2.17;;;1.00;;
3311;SDS011;1668;49.648;8.570;2024-02-26T07:24:13;2.03;;;0.90;;
3311;SDS011;1668;49.648;8.570;2024-02-26T07:26:40;1.20;;;0.90;;
3311;SDS011;1668;49.648;8.570;2024-02-26T07:29:07;1.73;;;1.00;;
3311;SDS011;1668;49.648;8.570;2024-02-26T07:31:35;2.17;;;1.00;;
3311;SDS011;1668;49.648;8.570;2024-02-26T07:34:01;1.33;;;0.87;;
3311;SDS011;1668;49.648;8.570;2024-02-26T07:36:28;2.40;;;1.00;;
3311;SDS011;1668;49.648;8.570;2024-02-26T07:38:55;0.93;;;0.80;;
3311;SDS011;1668;49.648;8.570;2024-02-26T07:41:22;1.20;;;1.10;;
3311;SDS011;1668;49.648;8.570;2024-02-26T07:43:49;1.67;;;1.03;;
3311;SDS011;1668;49.648;8.570;2024-02-26T07:46:15;4.87;;;2.10;;
3311;SDS011;1668;49.648;8.570;2024-02-26T07:48:43;3.67;;;2.70;;
3311;SDS011;1668;49.648;8.570;2024-02-26T07:51:11;6.73;;;4.07;;
3311;SDS011;1668;49.648;8.570;2024-02-26T07:53:39;7.97;;;5.50;;
3311;SDS011;1668;49.648;8.570;2024-02-26T07:56:06;7.93;;;5.30;;
3311;SDS011;1668;49.648;8.570;2024-02-26T07:58:33;5.70;;;4.20;;
3311;SDS011;1668;49.648;8.570;2024-02-26T08:00:59;5.43;;;4.10;;
3311;SDS011;1668;49.648;8.570;2024-02-26T08:03:26;2.37;;;1.93;;
3311;SDS011;1668;49.648;8.570;2024-02-26T08:05:54;2.00;;;1.50;;
3311;SDS011;1668;49.648;8.570;2024-02-26T08:08:21;2.33;;;1.77;;
3311;SDS011;1668;49.648;8.570;2024-02-26T08:10:48;2.10;;;1.47;;
3311;SDS011;1668;49.648;8.570;2024-02-26T08:13:15;1.90;;;1.40;;
3311;SDS011;1668;49.648;8.570;2024-02-26T08:15:42;3.47;;;1.27;;
3311;SDS011;1668;49.648;8.570;2024-02-26T08:18:09;1.13;;;0.93;;
3311;SDS011;1668;49.648;8.570;2024-02-26T08:20:35;1.77;;;1.30;;
3311;SDS011;1668;49.648;8.570;2024-02-26T08:23:04;1.80;;;1.20;;
3311;SDS011;1668;49.648;8.570;2024-02-26T08:25:30;1.70;;;1.00;;
3311;SDS011;1668;49.648;8.570;2024-02-26T08:27:57;1.30;;;1.10;;
3311;SDS011;1668;49.648;8.570;2024-02-26T08:30:25;1.10;;;0.87;;
3311;SDS011;1668;49.648;8.570;2024-02-26T08:32:51;3.57;;;1.30;;
3311;SDS011;1668;49.648;8.570;2024-02-26T08:35:18;1.57;;;1.20;;
3311;SDS011;1668;49.648;8.570;2024-02-26T08:37:46;2.13;;;1.00;;
3311;SDS011;1668;49.648;8.570;2024-02-26T08:40:14;4.63;;;0.97;;
3311;SDS011;1668;49.648;8.570;2024-02-26T08:42:41;2.23;;;1.50;;
3311;SDS011;1668;49.648;8.570;2024-02-26T08:45:08;2.10;;;1.50;;
3311;SDS011;1668;49.648;8.570;2024-02-26T08:47:36;3.10;;;1.17;;
3311;SDS011;1668;49.648;8.570;2024-02-26T08:50:03;1.43;;;1.07;;
3311;SDS011;1668;49.648;8.570;2024-02-26T08:52:31;1.13;;;0.93;;
3311;SDS011;1668;49.648;8.570;2024-02-26T08:54:58;2.13;;;1.00;;
3311;SDS011;1668;49.648;8.570;2024-02-26T08:57:27;1.00;;;0.80;;
3311;SDS011;1668;49.648;8.570;2024-02-26T08:59:53;1.23;;;1.00;;
3311;SDS011;1668;49.648;8.570;2024-02-26T09:02:20;1.37;;;1.10;;
3311;SDS011;1668;49.648;8.570;2024-02-26T09:04:47;2.50;;;0.90;;
3311;SDS011;1668;49.648;8.570;2024-02-26T09:07:16;2.73;;;1.20;;
3311;SDS011;1668;49.648;8.570;2024-02-26T09:09:43;1.70;;;1.23;;
3311;SDS011;1668;49.648;8.570;2024-02-26T09:12:09;1.70;;;1.20;;
3311;SDS011;1668;49.648;8.570;2024-02-26T09:14:38;4.20;;;1.30;;
3311;SDS011;1668;49.648;8.570;2024-02-26T09:17:04;1.40;;;1.10;;
3311;SDS011;1668;49.648;8.570;2024-02-26T09:19:32;2.93;;;1.63;;
3311;SDS011;1668;49.648;8.570;2024-02-26T09:21:59;1.87;;;1.40;;
3311;SDS011;1668;49.648;8.570;2024-02-26T09:24:26;4.70;;;1.60;;
3311;SDS011;1668;49.648;8.570;2024-02-26T09:26:53;4.80;;;2.37;;
3311;SDS011;1668;49.648;8.570;2024-02-26T09:29:20;2.67;;;1.80;;
3311;SDS011;1668;49.648;8.570;2024-02-26T09:31:48;3.80;;;1.83;;
3311;SDS011;1668;49.648;8.570;2024-02-26T09:34:14;1.73;;;1.30;;
3311;SDS011;1668;49.648;8.570;2024-02-26T09:36:41;2.80;;;1.60;;
3311;SDS011;1668;49.648;8.570;2024-02-26T09:39:09;2.97;;;1.67;;
3311;SDS011;1668;49.648;8.570;2024-02-26T09:41:37;2.03;;;1.60;;
3311;SDS011;1668;49.648;8.570;2024-02-26T09:44:04;1.83;;;1.20;;
3311;SDS011;1668;49.648;8.570;2024-02-26T09:46:32;2.20;;;1.50;;
3311;SDS011;1668;49.648;8.570;2024-02-26T09:49:01;2.40;;;1.33;;
3311;SDS011;1668;49.648;8.570;2024-02-26T09:51:28;4.13;;;1.80;;
3311;SDS011;1668;49.648;8.570;2024-02-26T09:53:55;1.60;;;1.20;;
3311;SDS011;1668;49.648;8.570;2024-02-26T09:56:25;1.10;;;0.93;;
3311;SDS011;1668;49.648;8.570;2024-02-26T09:58:53;1.13;;;0.80;;
3311;SDS011;1668;49.648;8.570;2024-02-26T10:01:22;4.10;;;2.10;;
3311;SDS011;1668;49.648;8.570;2024-02-26T10:03:51;4.50;;;2.70;;
3311;SDS011;1668;49.648;8.570;2024-02-26T10:06:22;4.83;;;2.83;;
3311;SDS011;1668;49.648;8.570;2024-02-26T10:08:50;3.03;;;1.73;;
3311;SDS011;1668;49.648;8.570;2024-02-26T10:11:19;2.87;;;1.63;;
3311;SDS011;1668;49.648;8.570;2024-02-26T10:13:46;2.50;;;1.90;;
3311;SDS011;1668;49.648;8.570;2024-02-26T10:16:13;1.93;;;1.60;;
3311;SDS011;1668;49.648;8.570;2024-02-26T10:18:45;1.73;;;1.23;;
3311;SDS011;1668;49.648;8.570;2024-02-26T10:21:12;1.60;;;1.30;;
3311;SDS011;1668;49.648;8.570;2024-02-26T10:23:42;2.00;;;1.37;;
3311;SDS011;1668;49.648;8.570;2024-02-26T10:26:09;1.47;;;1.20;;
3311;SDS011;1668;49.648;8.570;2024-02-26T10:28:38;3.27;;;1.33;;
3311;SDS011;1668;49.648;8.570;2024-02-26T10:31:05;1.93;;;1.30;;
3311;SDS011;1668;49.648;8.570;2024-02-26T10:33:33;1.43;;;1.10;;
3311;SDS011;1668;49.648;8.570;2024-02-26T10:36:00;1.70;;;1.20;;
3311;SDS011;1668;49.648;8.570;2024-02-26T10:38:28;3.30;;;1.67;;
3311;SDS011;1668;49.648;8.570;2024-02-26T10:40:57;3.53;;;1.67;;
3311;SDS011;1668;49.648;8.570;2024-02-26T10:43:24;5.80;;;1.67;;
3311;SDS011;1668;49.648;8.570;2024-02-26T10:45:51;6.97;;;1.97;;
3311;SDS011;1668;49.648;8.570;2024-02-26T10:48:20;4.30;;;2.10;;
3311;SDS011;1668;49.648;8.570;2024-02-26T10:50:48;6.63;;;1.60;;
3311;SDS011;1668;49.648;8.570;2024-02-26T10:53:16;4.03;;;1.73;;
3311;SDS011;1668;49.648;8.570;2024-02-26T10:55:46;2.50;;;1.53;;
3311;SDS011;1668;49.648;8.570;2024-02-26T10:58:16;2.20;;;1.00;;
3311;SDS011;1668;49.648;8.570;2024-02-26T11:00:44;0.93;;;0.80;;
3311;SDS011;1668;49.648;8.570;2024-02-26T11:03:13;1.63;;;0.97;;
3311;SDS011;1668;49.648;8.570;2024-02-26T11:05:42;2.63;;;1.30;;
3311;SDS011;1668;49.648;8.570;2024-02-26T11:08:11;2.50;;;1.23;;
3311;SDS011;1668;49.648;8.570;2024-02-26T11:10:38;1.93;;;0.90;;
3311;SDS011;1668;49.648;8.570;2024-02-26T11:13:06;1.93;;;0.90;;
3311;SDS011;1668;49.648;8.570;2024-02-26T11:15:39;1.20;;;0.90;;
3311;SDS011;1668;49.648;8.570;2024-02-26T11:18:06;1.90;;;1.20;;
3311;SDS011;1668;49.648;8.570;2024-02-26T11:20:35;1.77;;;0.87;;
3311;SDS011;1668;49.648;8.570;2024-02-26T11:23:06;1.40;;;0.90;;
3311;SDS011;1668;49.648;8.570;2024-02-26T11:25:34;1.43;;;1.00;;
3311;SDS011;1668;49.648;8.570;2024-02-26T11:28:02;1.43;;;0.90;;
3311;SDS011;1668;49.648;8.570;2024-02-26T11:30:32;1.30;;;0.90;;
3311;SDS011;1668;49.648;8.570;2024-02-26T11:33:02;2.90;;;1.03;;
3311;SDS011;1668;49.648;8.570;2024-02-26T11:35:30;1.30;;;0.90;;
3311;SDS011;1668;49.648;8.570;2024-02-26T11:37:57;1.77;;;0.90;;
3311;SDS011;1668;49.648;8.570;2024-02-26T11:40:26;2.03;;;1.30;;
3311;SDS011;1668;49.648;8.570;2024-02-26T11:42:53;1.10;;;0.87;;
3311;SDS011;1668;49.648;8.570;2024-02-26T11:48:21;3.40;;;1.90;;
3311;SDS011;1668;49.648;8.570;2024-02-26T11:50:49;2.13;;;1.40;;
3311;SDS011;1668;49.648;8.570;2024-02-26T11:53:25;1.00;;;0.87;;
3311;SDS011;1668;49.648;8.570;2024-02-26T11:58:39;1.57;;;0.90;;
3311;SDS011;1668;49.648;8.570;2024-02-26T12:01:05;1.33;;;0.80;;
3311;SDS011;1668;49.648;8.570;2024-02-26T12:03:55;1.50;;;1.20;;
3311;SDS011;1668;49.648;8.570;2024-02-26T12:06:23;1.83;;;0.90;;
3311;SDS011;1668;49.648;8.570;2024-02-26T12:08:52;1.27;;;0.80;;
3311;SDS011;1668;49.648;8.570;2024-02-26T12:11:19;1.30;;;0.80;;
3311;SDS011;1668;49.648;8.570;2024-02-26T12:13:47;1.87;;;0.90;;
3311;SDS011;1668;49.648;8.570;2024-02-26T12:16:21;0.70;;;0.60;;
3311;SDS011;1668;49.648;8.570;2024-02-26T12:19:03;1.00;;;0.70;;
3311;SDS011;1668;49.648;8.570;2024-02-26T12:21:31;0.93;;;0.80;;
3311;SDS011;1668;49.648;8.570;2024-02-26T12:24:06;1.00;;;0.70;;
3311;SDS011;1668;49.648;8.570;2024-02-26T12:26:37;0.90;;;0.73;;
3311;SDS011;1668;49.648;8.570;2024-02-26T12:29:04;1.07;;;0.70;;
3311;SDS011;1668;49.648;8.570;2024-02-26T12:31:31;1.13;;;0.87;;
3311;SDS011;1668;49.648;8.570;2024-02-26T12:33:58;0.80;;;0.67;;
3311;SDS011;1668;49.648;8.570;2024-02-26T12:36:27;1.00;;;0.80;;
3311;SDS011;1668;49.648;8.570;2024-02-26T12:38:54;1.20;;;0.80;;
3311;SDS011;1668;49.648;8.570;2024-02-26T12:41:22;1.10;;;0.80;;
3311;SDS011;1668;49.648;8.570;2024-02-26T12:43:49;0.80;;;0.70;;
3311;SDS011;1668;49.648;8.570;2024-02-26T12:46:15;0.90;;;0.70;;
3311;SDS011;1668;49.648;8.570;2024-02-26T12:48:43;1.13;;;0.80;;
3311;SDS011;1668;49.648;8.570;2024-02-26T12:51:10;2.10;;;1.10;;
3311;SDS011;1668;49.648;8.570;2024-02-26T12:53:39;1.53;;;1.03;;
3311;SDS011;1668;49.648;8.570;2024-02-26T12:56:07;0.93;;;0.80;;
3311;SDS011;1668;49.648;8.570;2024-02-26T12:58:35;1.67;;;1.10;;
3311;SDS011;1668;49.648;8.570;2024-02-26T13:01:04;0.80;;;0.60;;
3311;SDS011;1668;49.648;8.570;2024-02-26T13:03:31;1.30;;;0.73;;
3311;SDS011;1668;49.648;8.570;2024-02-26T13:05:59;0.90;;;0.70;;
3311;SDS011;1668;49.648;8.570;2024-02-26T13:08:26;1.07;;;0.80;;
3311;SDS011;1668;49.648;8.570;2024-02-26T13:10:54;1.27;;;0.87;;
3311;SDS011;1668;49.648;8.570;2024-02-26T13:13:22;1.00;;;0.73;;
3311;SDS011;1668;49.648;8.570;2024-02-26T13:15:49;1.60;;;0.70;;
3311;SDS011;1668;49.648;8.570;2024-02-26T13:18:15;0.83;;;0.70;;
3311;SDS011;1668;49.648;8.570;2024-02-26T13:20:42;2.63;;;0.93;;
3311;SDS011;1668;49.648;8.570;2024-02-26T13:23:11;0.93;;;0.60;;
3311;SDS011;1668;49.648;8.570;2024-02-26T13:25:39;0.97;;;0.80;;
3311;SDS011;1668;49.648;8.570;2024-02-26T13:28:08;1.27;;;0.60;;
3311;SDS011;1668;49.648;8.570;2024-02-26T13:30:36;2.00;;;0.80;;
3311;SDS011;1668;49.648;8.570;2024-02-26T13:33:09;2.40;;;0.70;;
3311;SDS011;1668;49.648;8.570;2024-02-26T13:35:36;1.53;;;0.77;;
3311;SDS011;1668;49.648;8.570;2024-02-26T13:38:04;0.90;;;0.70;;
3311;SDS011;1668;49.648;8.570;2024-02-26T13:40:31;2.30;;;0.70;;
3311;SDS011;1668;49.648;8.570;2024-02-26T13:42:59;1.30;;;0.67;;
3311;SDS011;1668;49.648;8.570;2024-02-26T13:45:27;1.20;;;0.73;;
3311;SDS011;1668;49.648;8.570;2024-02-26T13:47:54;2.40;;;1.17;;
3311;SDS011;1668;49.648;8.570;2024-02-26T13:50:27;2.03;;;1.27;;
3311;SDS011;1668;49.648;8.570;2024-02-26T13:52:53;1.60;;;0.87;;
3311;SDS011;1668;49.648;8.570;2024-02-26T13:55:21;1.43;;;0.90;;
3311;SDS011;1668;49.648;8.570;2024-02-26T13:57:51;1.50;;;1.00;;
3311;SDS011;1668;49.648;8.570;2024-02-26T14:00:19;1.43;;;0.77;;
3311;SDS011;1668;49.648;8.570;2024-02-26T14:02:47;1.63;;;0.97;;
3311;SDS011;1668;49.648;8.570;2024-02-26T14:05:14;1.53;;;0.90;;
3311;SDS011;1668;49.648;8.570;2024-02-26T14:07:41;1.47;;;0.80;;
3311;SDS011;1668;49.648;8.570;2024-02-26T14:10:08;1.97;;;0.93;;
3311;SDS011;1668;49.648;8.570;2024-02-26T14:12:37;1.30;;;0.90;;
3311;SDS011;1668;49.648;8.570;2024-02-26T14:15:06;1.00;;;0.70;;
3311;SDS011;1668;49.648;8.570;2024-02-26T14:17:33;2.70;;;0.90;;
3311;SDS011;1668;49.648;8.570;2024-02-26T14:20:01;1.27;;;0.90;;
3311;SDS011;1668;49.648;8.570;2024-02-26T14:22:28;1.13;;;0.90;;
3311;SDS011;1668;49.648;8.570;2024-02-26T14:24:56;1.10;;;0.80;;
3311;SDS011;1668;49.648;8.570;2024-02-26T14:27:22;1.70;;;1.07;;
3311;SDS011;1668;49.648;8.570;2024-02-26T14:29:49;2.57;;;1.23;;
3311;SDS011;1668;49.648;8.570;2024-02-26T14:32:16;1.43;;;1.20;;
3311;SDS011;1668;49.648;8.570;2024-02-26T14:34:43;1.87;;;1.30;;
3311;SDS011;1668;49.648;8.570;2024-02-26T14:37:11;2.20;;;1.90;;
3311;SDS011;1668;49.648;8.570;2024-02-26T14:39:38;5.50;;;1.50;;
3311;SDS011;1668;49.648;8.570;2024-02-26T14:42:05;2.13;;;1.30;;
3311;SDS011;1668;49.648;8.570;2024-02-26T14:44:32;2.90;;;1.50;;
3311;SDS011;1668;49.648;8.570;2024-02-26T14:46:59;2.40;;;1.70;;
3311;SDS011;1668;49.648;8.570;2024-02-26T14:49:26;2.67;;;1.40;;
3311;SDS011;1668;49.648;8.570;2024-02-26T14:51:54;1.90;;;1.40;;
3311;SDS011;1668;49.648;8.570;2024-02-26T14:54:22;4.67;;;2.10;;
3311;SDS011;1668;49.648;8.570;2024-02-26T14:56:49;2.53;;;1.60;;
3311;SDS011;1668;49.648;8.570;2024-02-26T14:59:16;2.70;;;1.97;;
3311;SDS011;1668;49.648;8.570;2024-02-26T15:01:43;2.93;;;1.93;;
3311;SDS011;1668;49.648;8.570;2024-02-26T15:04:10;4.63;;;1.80;;
3311;SDS011;1668;49.648;8.570;2024-02-26T15:06:37;3.77;;;1.57;;
3311;SDS011;1668;49.648;8.570;2024-02-26T15:09:04;2.03;;;1.60;;
3311;SDS011;1668;49.648;8.570;2024-02-26T15:11:33;2.90;;;1.93;;
3311;SDS011;1668;49.648;8.570;2024-02-26T15:14:03;2.70;;;1.90;;
3311;SDS011;1668;49.648;8.570;2024-02-26T15:16:30;2.10;;;1.70;;
3311;SDS011;1668;49.648;8.570;2024-02-26T15:18:57;2.30;;;1.10;;
3311;SDS011;1668;49.648;8.570;2024-02-26T15:21:24;1.50;;;0.80;;
3311;SDS011;1668;49.648;8.570;2024-02-26T15:23:50;1.20;;;0.90;;